Time,TemperatureF,DewpointF,PressureIn,WindDirection,WindDirectionDegrees,WindSpeedMPH,WindSpeedGustMPH,Humidity,HourlyPrecipIn,Conditions,Clouds,dailyrainin,SolarRadiationWatts/m^2,SoftwareType,DateUTC
2013-04-29 00:21:00,25.0,12.0,-100.00,NNE,33,0.0,0.0,57,0.00,,,0.00,0.000000,,2013-04-29 08:21:00,
2013-04-29 00:31:00,25.0,12.0,-100.00,NNE,33,0.0,0.0,57,0.00,,,0.00,0.000000,,2013-04-29 08:31:00,
2013-04-29 00:42:00,25.0,12.0,-100.00,NNE,33,0.0,0.0,57,0.00,,,0.00,0.000000,,2013-04-29 08:42:00,
2013-04-29 00:51:00,25.0,12.0,-100.00,NNE,33,0.0,0.0,57,0.00,,,0.00,0.000000,,2013-04-29 08:51:00,
2013-04-29 01:21:00,25.0,14.0,-100.00,ENE,57,0.0,1.0,63,0.00,,,0.00,0.000000,,2013-04-29 09:21:00,
2013-04-29 01:32:00,25.0,14.0,-100.00,ENE,57,0.0,1.0,63,0.00,,,0.00,0.000000,,2013-04-29 09:32:00,
2013-04-29 01:42:00,25.0,14.0,-100.00,ENE,57,0.0,1.0,63,0.00,,,0.00,0.000000,,2013-04-29 09:42:00,
2013-04-29 01:52:00,25.0,14.0,-100.00,ENE,57,0.0,1.0,63,0.00,,,0.00,0.000000,,2013-04-29 09:52:00,
2013-04-29 02:23:00,24.0,13.0,-100.00,NE,46,0.0,0.0,62,0.00,,,0.00,0.000000,,2013-04-29 10:23:00,
2013-04-29 02:32:00,24.0,13.0,-100.00,NE,46,0.0,0.0,62,0.00,,,0.00,0.000000,,2013-04-29 10:32:00,
2013-04-29 02:42:00,24.0,13.0,-100.00,NE,46,0.0,0.0,62,0.00,,,0.00,0.000000,,2013-04-29 10:42:00,
2013-04-29 02:52:00,24.0,13.0,-100.00,NE,46,0.0,0.0,62,0.00,,,0.00,0.000000,,2013-04-29 10:52:00,
2013-04-29 03:21:00,22.0,12.0,-100.00,NE,41,0.0,2.0,66,0.00,,,0.00,0.000000,,2013-04-29 11:21:00,
2013-04-29 04:22:00,21.0,12.0,-100.00,NE,40,0.0,1.0,68,0.00,,,0.00,0.000000,,2013-04-29 12:22:00,
2013-04-29 04:41:00,21.0,12.0,-100.00,NE,40,0.0,1.0,68,0.00,,,0.00,0.000000,,2013-04-29 12:41:00,
2013-04-29 04:51:00,21.0,12.0,-100.00,NE,40,0.0,1.0,68,0.00,,,0.00,0.000000,,2013-04-29 12:51:00,
2013-04-29 05:21:00,20.0,13.0,-100.00,NE,40,0.0,1.0,73,0.00,,,0.00,0.000000,,2013-04-29 13:21:00,
2013-04-29 05:31:00,20.0,13.0,-100.00,NE,40,0.0,1.0,73,0.00,,,0.00,0.000000,,2013-04-29 13:31:00,
2013-04-29 05:42:00,20.0,13.0,-100.00,NE,40,0.0,1.0,73,0.00,,,0.00,0.000000,,2013-04-29 13:42:00,
2013-04-29 05:52:00,20.0,13.0,-100.00,NE,40,0.0,1.0,73,0.00,,,0.00,0.000000,,2013-04-29 13:52:00,
2013-04-29 06:21:00,19.0,12.0,-100.00,NE,43,0.0,1.0,74,0.00,,,0.00,1.000000,,2013-04-29 14:21:00,
2013-04-29 06:32:00,19.0,12.0,-100.00,NE,43,0.0,1.0,74,0.00,,,0.00,1.000000,,2013-04-29 14:32:00,
2013-04-29 06:42:00,19.0,12.0,-100.00,NE,43,0.0,1.0,74,0.00,,,0.00,1.000000,,2013-04-29 14:42:00,
2013-04-29 06:51:00,19.0,12.0,-100.00,NE,43,0.0,1.0,74,0.00,,,0.00,1.000000,,2013-04-29 14:51:00,
2013-04-29 07:21:00,19.0,13.0,-100.00,NE,41,0.0,1.0,76,0.00,,,0.00,11.000000,,2013-04-29 15:21:00,
2013-04-29 07:33:00,19.0,13.0,-100.00,NE,41,0.0,1.0,76,0.00,,,0.00,11.000000,,2013-04-29 15:33:00,
2013-04-29 07:42:00,19.0,13.0,-100.00,NE,41,0.0,1.0,76,0.00,,,0.00,11.000000,,2013-04-29 15:42:00,
2013-04-29 07:52:00,19.0,13.0,-100.00,NE,41,0.0,1.0,76,0.00,,,0.00,11.000000,,2013-04-29 15:52:00,
2013-04-29 08:23:00,22.0,15.0,-100.00,NE,48,0.0,1.0,74,0.00,,,0.00,31.000000,,2013-04-29 16:23:00,
2013-04-29 08:32:00,22.0,15.0,-100.00,NE,48,0.0,1.0,74,0.00,,,0.00,31.000000,,2013-04-29 16:32:00,
2013-04-29 08:42:00,22.0,15.0,-100.00,NE,48,0.0,1.0,74,0.00,,,0.00,31.000000,,2013-04-29 16:42:00,
2013-04-29 08:52:00,22.0,15.0,-100.00,NE,48,0.0,1.0,74,0.00,,,0.00,31.000000,,2013-04-29 16:52:00,
2013-04-29 09:22:00,29.0,16.0,-100.00,NNE,19,0.0,1.0,59,0.00,,,0.00,72.000000,,2013-04-29 17:22:00,
2013-04-29 09:32:00,29.0,16.0,-100.00,NNE,19,0.0,1.0,59,0.00,,,0.00,72.000000,,2013-04-29 17:32:00,
2013-04-29 09:42:00,29.0,16.0,-100.00,NNE,19,0.0,1.0,59,0.00,,,0.00,72.000000,,2013-04-29 17:42:00,
2013-04-29 09:52:00,29.0,16.0,-100.00,NNE,19,0.0,1.0,59,0.00,,,0.00,72.000000,,2013-04-29 17:52:00,
2013-04-29 10:22:00,38.0,15.0,-100.00,NW,320,1.0,4.0,39,0.00,,,0.00,124.000000,,2013-04-29 18:22:00,
2013-04-29 10:31:00,38.0,15.0,-100.00,NW,320,1.0,4.0,39,0.00,,,0.00,124.000000,,2013-04-29 18:31:00,
2013-04-29 10:41:00,38.0,15.0,-100.00,NW,320,1.0,4.0,39,0.00,,,0.00,124.000000,,2013-04-29 18:41:00,
2013-04-29 10:51:00,38.0,15.0,-100.00,NW,320,1.0,4.0,39,0.00,,,0.00,124.000000,,2013-04-29 18:51:00,
2013-04-29 11:21:00,44.0,16.0,-100.00,West,272,2.0,4.0,32,0.00,,,0.00,330.000000,,2013-04-29 19:21:00,
2013-04-29 11:31:00,44.0,16.0,-100.00,West,272,2.0,4.0,32,0.00,,,0.00,330.000000,,2013-04-29 19:31:00,
2013-04-29 11:41:00,44.0,16.0,-100.00,West,272,2.0,4.0,32,0.00,,,0.00,330.000000,,2013-04-29 19:41:00,
2013-04-29 11:51:00,44.0,16.0,-100.00,West,272,2.0,4.0,32,0.00,,,0.00,330.000000,,2013-04-29 19:51:00,
2013-04-29 12:21:00,46.0,16.0,-100.00,WSW,252,1.0,4.0,29,0.00,,,0.00,515.000000,,2013-04-29 20:21:00,
2013-04-29 12:32:00,46.0,16.0,-100.00,WSW,252,1.0,4.0,29,0.00,,,0.00,515.000000,,2013-04-29 20:32:00,
2013-04-29 12:42:00,46.0,16.0,-100.00,WSW,252,1.0,4.0,29,0.00,,,0.00,515.000000,,2013-04-29 20:42:00,
2013-04-29 12:51:00,46.0,16.0,-100.00,WSW,252,1.0,4.0,29,0.00,,,0.00,515.000000,,2013-04-29 20:51:00,
2013-04-29 13:21:00,50.0,14.0,-100.00,West,274,2.0,4.0,23,0.00,,,0.00,729.000000,,2013-04-29 21:21:00,
2013-04-29 13:42:00,50.0,14.0,-100.00,West,274,2.0,4.0,23,0.00,,,0.00,729.000000,,2013-04-29 21:42:00,
2013-04-29 13:53:00,50.0,14.0,-100.00,West,274,2.0,4.0,23,0.00,,,0.00,729.000000,,2013-04-29 21:53:00,
2013-04-29 14:42:00,51.0,12.0,-100.00,WSW,255,2.0,4.0,21,0.00,,,0.00,740.000000,,2013-04-29 22:42:00,
2013-04-29 14:52:00,51.0,12.0,-100.00,WSW,255,2.0,4.0,21,0.00,,,0.00,740.000000,,2013-04-29 22:52:00,
2013-04-29 15:22:00,51.0,12.0,-100.00,West,265,2.0,6.0,21,0.00,,,0.00,672.000000,,2013-04-29 23:22:00,
2013-04-29 15:42:00,51.0,12.0,-100.00,West,265,2.0,6.0,21,0.00,,,0.00,672.000000,,2013-04-29 23:42:00,
2013-04-29 15:52:00,51.0,12.0,-100.00,West,265,2.0,6.0,21,0.00,,,0.00,672.000000,,2013-04-29 23:52:00,
2013-04-29 16:21:00,50.0,13.0,-100.00,WSW,256,1.0,4.0,22,0.00,,,0.00,536.000000,,2013-04-30 00:21:00,
2013-04-29 16:41:00,50.0,13.0,-100.00,WSW,256,1.0,4.0,22,0.00,,,0.00,536.000000,,2013-04-30 00:41:00,
2013-04-29 16:51:00,50.0,13.0,-100.00,WSW,256,1.0,4.0,22,0.00,,,0.00,536.000000,,2013-04-30 00:51:00,
2013-04-29 18:21:00,45.0,13.0,-100.00,South,191,3.0,9.0,27,-99.99,,,0.00,246.000000,,2013-04-30 02:21:00,
2013-04-29 18:31:00,45.0,13.0,-100.00,South,191,3.0,9.0,27,-99.99,,,0.00,246.000000,,2013-04-30 02:31:00,
2013-04-29 18:41:00,45.0,13.0,-100.00,South,191,3.0,9.0,27,-99.99,,,0.00,246.000000,,2013-04-30 02:41:00,
2013-04-29 18:51:00,45.0,13.0,-100.00,South,191,3.0,9.0,27,-99.99,,,0.00,246.000000,,2013-04-30 02:51:00,
2013-04-29 19:21:00,43.0,14.0,-100.00,South,179,3.0,9.0,31,0.00,,,0.00,166.000000,,2013-04-30 03:21:00,
2013-04-29 19:33:00,43.0,14.0,-100.00,South,179,3.0,9.0,31,0.00,,,0.00,166.000000,,2013-04-30 03:33:00,
2013-04-29 19:42:00,43.0,14.0,-100.00,South,179,3.0,9.0,31,0.00,,,0.00,166.000000,,2013-04-30 03:42:00,
2013-04-29 19:52:00,43.0,14.0,-100.00,South,179,3.0,9.0,31,0.00,,,0.00,166.000000,,2013-04-30 03:52:00,
2013-04-29 22:21:00,35.0,19.0,-100.00,SSE,147,1.0,6.0,52,-99.99,,,0.00,12.000000,,2013-04-30 06:21:00,
2013-04-29 22:31:00,35.0,19.0,-100.00,SSE,147,1.0,6.0,52,-99.99,,,0.00,12.000000,,2013-04-30 06:31:00,
2013-04-29 22:41:00,35.0,19.0,-100.00,SSE,147,1.0,6.0,52,-99.99,,,0.00,12.000000,,2013-04-30 06:41:00,
2013-04-29 22:52:00,35.0,19.0,-100.00,SSE,147,1.0,6.0,52,-99.99,,,0.00,12.000000,,2013-04-30 06:52:00,
2013-04-29 23:21:00,33.0,20.0,-100.00,ESE,110,0.0,4.0,59,0.00,,,0.00,1.000000,,2013-04-30 07:21:00,
2013-04-29 23:31:00,33.0,20.0,-100.00,ESE,110,0.0,4.0,59,0.00,,,0.00,1.000000,,2013-04-30 07:31:00,
2013-04-29 23:41:00,33.0,20.0,-100.00,ESE,110,0.0,4.0,59,0.00,,,0.00,1.000000,,2013-04-30 07:41:00,
2013-04-29 23:52:00,33.0,20.0,-100.00,ESE,110,0.0,4.0,59,0.00,,,0.00,1.000000,,2013-04-30 07:52:00,